OEFVS EBAW-LQSA
Flight info
| Callsign | OEFVS |
|---|---|
| Flight time | 2h 7m |
| Altitude | 37000 |
| Route | GILOM M624 DIK M150 GEBDA/N0321F380 Y173 PABLA/N0334F370 Z721 UTABA DCT UMVEG DCT MAXUR DCT BOSNA |
| Aircraft | P180/L-SBDFGM3RWXY/LB1 |
Departure
| Time | 2026-04-30 19:45 |
|---|---|
| Airport | Antwerp International Airport (Deurne) (EBAW) |
Arrival
| Time | 2026-04-30 21:52 |
|---|---|
| Airport | Sarajevo International Airport (LQSA) |
| Time | Latitude | Longitude | Altitude | Speed | Heading |
|---|---|---|---|---|---|
| 2026-04-30 19:30 | 51.18789 | 4.45420 | 33 ft | 0 kts | 328° |
| 2026-04-30 19:41 | 51.18793 | 4.45417 | 33 ft | 2 kts | 328° |
| 2026-04-30 19:41 | 51.18817 | 4.45414 | 33 ft | 5 kts | 37° |
| 2026-04-30 19:41 | 51.18844 | 4.45456 | 33 ft | 7 kts | 350° |
| 2026-04-30 19:41 | 51.18902 | 4.45417 | 33 ft | 10 kts | 328° |
| 2026-04-30 19:42 | 51.18962 | 4.45418 | 33 ft | 10 kts | 50° |
| 2026-04-30 19:42 | 51.19011 | 4.45511 | 33 ft | 12 kts | 31° |
| 2026-04-30 19:42 | 51.19082 | 4.45454 | 33 ft | 10 kts | 322° |
| 2026-04-30 19:42 | 51.19086 | 4.45450 | 33 ft | 0 kts | 321° |
| 2026-04-30 19:43 | 51.19086 | 4.45449 | 33 ft | 1 kts | 321° |
| 2026-04-30 19:44 | 51.19173 | 4.45339 | 34 ft | 12 kts | 323° |
| 2026-04-30 19:44 | 51.19209 | 4.45383 | 35 ft | 7 kts | 109° |
| 2026-04-30 19:44 | 51.19208 | 4.45386 | 35 ft | 0 kts | 108° |
| 2026-04-30 19:44 | 51.19128 | 4.45739 | 36 ft | 69 kts | 110° |
| 2026-04-30 19:45 | 51.18910 | 4.46705 | 38 ft | 112 kts | 110° |
| 2026-04-30 19:45 | 51.18618 | 4.47955 | 305 ft | 123 kts | 112° |
| 2026-04-30 19:45 | 51.18288 | 4.49133 | 703 ft | 116 kts | 105° |
| 2026-04-30 19:45 | 51.18047 | 4.50405 | 1060 ft | 123 kts | 110° |
| 2026-04-30 19:46 | 51.17739 | 4.51674 | 1483 ft | 122 kts | 110° |
| 2026-04-30 19:46 | 51.17448 | 4.52943 | 1914 ft | 122 kts | 111° |
| 2026-04-30 19:46 | 51.17153 | 4.54202 | 2352 ft | 121 kts | 112° |
| 2026-04-30 19:46 | 51.16853 | 4.55468 | 2718 ft | 125 kts | 113° |
| 2026-04-30 19:47 | 51.16516 | 4.56889 | 2995 ft | 150 kts | 112° |
| 2026-04-30 19:47 | 51.16261 | 4.57999 | 3207 ft | 165 kts | 113° |
| 2026-04-30 19:47 | 51.15745 | 4.60240 | 4106 ft | 163 kts | 115° |
| 2026-04-30 19:47 | 51.14981 | 4.61540 | 4749 ft | 166 kts | 149° |
| 2026-04-30 19:48 | 51.13887 | 4.62215 | 5384 ft | 172 kts | 165° |
| 2026-04-30 19:48 | 51.12698 | 4.62613 | 6023 ft | 176 kts | 163° |
| 2026-04-30 19:48 | 51.11550 | 4.63272 | 6645 ft | 176 kts | 143° |
| 2026-04-30 19:48 | 51.10594 | 4.64579 | 7075 ft | 190 kts | 138° |
| 2026-04-30 19:49 | 51.09498 | 4.65934 | 7343 ft | 204 kts | 142° |
| 2026-04-30 19:49 | 51.07187 | 4.68585 | 8321 ft | 207 kts | 142° |
| 2026-04-30 19:49 | 51.06020 | 4.69934 | 8788 ft | 209 kts | 142° |
| 2026-04-30 19:50 | 51.04844 | 4.71306 | 9248 ft | 211 kts | 142° |
| 2026-04-30 19:50 | 51.03649 | 4.72683 | 9700 ft | 213 kts | 142° |
| 2026-04-30 19:50 | 51.02444 | 4.74075 | 10164 ft | 215 kts | 142° |
| 2026-04-30 19:50 | 51.01231 | 4.75476 | 10639 ft | 217 kts | 142° |
| 2026-04-30 19:51 | 51.00420 | 4.76413 | 10938 ft | 218 kts | 142° |
| 2026-04-30 19:51 | 50.99183 | 4.77840 | 11408 ft | 220 kts | 142° |
| 2026-04-30 19:51 | 50.97532 | 4.79740 | 12006 ft | 223 kts | 142° |
| 2026-04-30 19:51 | 50.96271 | 4.81198 | 12458 ft | 225 kts | 142° |
| 2026-04-30 19:52 | 50.94999 | 4.82659 | 12910 ft | 227 kts | 142° |
| 2026-04-30 19:52 | 50.94132 | 4.83655 | 13200 ft | 228 kts | 142° |
| 2026-04-30 19:52 | 50.92842 | 4.85140 | 13619 ft | 230 kts | 142° |
| 2026-04-30 19:52 | 50.91540 | 4.86634 | 14039 ft | 232 kts | 142° |
| 2026-04-30 19:53 | 50.90227 | 4.88139 | 14406 ft | 233 kts | 142° |
| 2026-04-30 19:53 | 50.88908 | 4.89652 | 14769 ft | 234 kts | 142° |
| 2026-04-30 19:53 | 50.87582 | 4.91174 | 15127 ft | 236 kts | 142° |
| 2026-04-30 19:53 | 50.86268 | 4.92682 | 15473 ft | 237 kts | 142° |
| 2026-04-30 19:54 | 50.84928 | 4.94212 | 15816 ft | 238 kts | 142° |
| 2026-04-30 19:54 | 50.83579 | 4.95755 | 16153 ft | 239 kts | 142° |
| 2026-04-30 19:54 | 50.82234 | 4.97294 | 16495 ft | 240 kts | 142° |
| 2026-04-30 19:54 | 50.80877 | 4.98841 | 16828 ft | 241 kts | 142° |
| 2026-04-30 19:55 | 50.79514 | 5.00398 | 17142 ft | 242 kts | 142° |
| 2026-04-30 19:55 | 50.78144 | 5.01962 | 17452 ft | 243 kts | 142° |
| 2026-04-30 19:55 | 50.76768 | 5.03528 | 17770 ft | 244 kts | 142° |
| 2026-04-30 19:55 | 50.75384 | 5.05104 | 18061 ft | 246 kts | 142° |
| 2026-04-30 19:56 | 50.73993 | 5.06687 | 18404 ft | 246 kts | 142° |
| 2026-04-30 19:56 | 50.72600 | 5.08272 | 18704 ft | 248 kts | 142° |
| 2026-04-30 19:56 | 50.71198 | 5.09867 | 18972 ft | 249 kts | 142° |
| 2026-04-30 19:56 | 50.69791 | 5.11462 | 19251 ft | 250 kts | 142° |
| 2026-04-30 19:57 | 50.68369 | 5.13076 | 19522 ft | 251 kts | 142° |
| 2026-04-30 19:57 | 50.66946 | 5.14695 | 19741 ft | 254 kts | 141° |
| 2026-04-30 19:57 | 50.65502 | 5.16325 | 20007 ft | 255 kts | 142° |
| 2026-04-30 19:57 | 50.64072 | 5.17941 | 20278 ft | 256 kts | 142° |
| 2026-04-30 19:58 | 50.62621 | 5.19585 | 20541 ft | 257 kts | 142° |
| 2026-04-30 19:58 | 50.61162 | 5.21234 | 20800 ft | 258 kts | 142° |
| 2026-04-30 19:58 | 50.59696 | 5.22888 | 21103 ft | 260 kts | 142° |
| 2026-04-30 19:58 | 50.58225 | 5.24548 | 21398 ft | 261 kts | 142° |
| 2026-04-30 19:59 | 50.56744 | 5.26218 | 21693 ft | 262 kts | 142° |
| 2026-04-30 19:59 | 50.55254 | 5.27895 | 22000 ft | 264 kts | 142° |
| 2026-04-30 19:59 | 50.52256 | 5.31269 | 22625 ft | 266 kts | 142° |
| 2026-04-30 20:00 | 50.50746 | 5.32965 | 22953 ft | 267 kts | 142° |
| 2026-04-30 20:00 | 50.49232 | 5.34665 | 23276 ft | 268 kts | 142° |
| 2026-04-30 20:00 | 50.47711 | 5.36376 | 23588 ft | 270 kts | 142° |
| 2026-04-30 20:00 | 50.46179 | 5.38093 | 23913 ft | 271 kts | 142° |
| 2026-04-30 20:01 | 50.43090 | 5.41550 | 24477 ft | 274 kts | 142° |
| 2026-04-30 20:01 | 50.41534 | 5.43291 | 24770 ft | 275 kts | 142° |
| 2026-04-30 20:01 | 50.39973 | 5.45034 | 25066 ft | 276 kts | 142° |
| 2026-04-30 20:02 | 50.36844 | 5.48529 | 25658 ft | 279 kts | 142° |
| 2026-04-30 20:02 | 50.35247 | 5.50307 | 26031 ft | 278 kts | 142° |
| 2026-04-30 20:03 | 50.32121 | 5.53787 | 26779 ft | 277 kts | 142° |
| 2026-04-30 20:03 | 50.30543 | 5.55542 | 27094 ft | 279 kts | 142° |
| 2026-04-30 20:03 | 50.28965 | 5.57294 | 27504 ft | 278 kts | 142° |
| 2026-04-30 20:03 | 50.27392 | 5.59041 | 27948 ft | 276 kts | 142° |
| 2026-04-30 20:04 | 50.25825 | 5.60779 | 28376 ft | 275 kts | 142° |
| 2026-04-30 20:04 | 50.24266 | 5.62506 | 28819 ft | 274 kts | 142° |
| 2026-04-30 20:04 | 50.22711 | 5.64229 | 29263 ft | 274 kts | 142° |
| 2026-04-30 20:05 | 50.19604 | 5.67663 | 30181 ft | 273 kts | 141° |
| 2026-04-30 20:05 | 50.18056 | 5.69377 | 30618 ft | 272 kts | 141° |
| 2026-04-30 20:05 | 50.14969 | 5.72780 | 31438 ft | 271 kts | 141° |
| 2026-04-30 20:06 | 50.13434 | 5.74473 | 31829 ft | 270 kts | 141° |
| 2026-04-30 20:06 | 50.11897 | 5.76165 | 32210 ft | 270 kts | 141° |
| 2026-04-30 20:06 | 50.10365 | 5.77850 | 32580 ft | 270 kts | 142° |
| 2026-04-30 20:06 | 50.08826 | 5.79541 | 32940 ft | 270 kts | 142° |
| 2026-04-30 20:07 | 50.07343 | 5.81328 | 33288 ft | 268 kts | 134° |
| 2026-04-30 20:07 | 50.06022 | 5.83368 | 33667 ft | 267 kts | 133° |
| 2026-04-30 20:07 | 50.03324 | 5.87358 | 34325 ft | 268 kts | 134° |
| 2026-04-30 20:08 | 50.01984 | 5.89372 | 34616 ft | 267 kts | 133° |
| 2026-04-30 20:08 | 50.00666 | 5.91352 | 34894 ft | 267 kts | 133° |
| 2026-04-30 20:08 | 49.99330 | 5.93348 | 35165 ft | 267 kts | 133° |
| 2026-04-30 20:08 | 49.97986 | 5.95351 | 35394 ft | 268 kts | 133° |
| 2026-04-30 20:09 | 49.96640 | 5.97362 | 35658 ft | 268 kts | 133° |
| 2026-04-30 20:09 | 49.95293 | 5.99370 | 35947 ft | 268 kts | 133° |
| 2026-04-30 20:09 | 49.92593 | 6.03387 | 36488 ft | 269 kts | 133° |
| 2026-04-30 20:10 | 49.89890 | 6.07400 | 36999 ft | 269 kts | 133° |
| 2026-04-30 20:10 | 49.88535 | 6.09411 | 37249 ft | 269 kts | 133° |
| 2026-04-30 20:10 | 49.87165 | 6.11449 | 37286 ft | 277 kts | 133° |
| 2026-04-30 20:11 | 49.84971 | 6.16409 | 37304 ft | 288 kts | 115° |
| 2026-04-30 20:11 | 49.84035 | 6.19204 | 37302 ft | 297 kts | 116° |
| 2026-04-30 20:11 | 49.83053 | 6.22064 | 37300 ft | 305 kts | 116° |
| 2026-04-30 20:12 | 49.81027 | 6.28027 | 37303 ft | 319 kts | 116° |
| 2026-04-30 20:12 | 49.79980 | 6.31113 | 37301 ft | 326 kts | 116° |
| 2026-04-30 20:13 | 49.77821 | 6.37433 | 37301 ft | 337 kts | 115° |
| 2026-04-30 20:13 | 49.75600 | 6.43943 | 37297 ft | 347 kts | 115° |
| 2026-04-30 20:14 | 49.73318 | 6.50594 | 37299 ft | 353 kts | 115° |
| 2026-04-30 20:14 | 49.71002 | 6.57355 | 37295 ft | 358 kts | 116° |
| 2026-04-30 20:15 | 49.68655 | 6.64200 | 37292 ft | 362 kts | 116° |
| 2026-04-30 20:15 | 49.66280 | 6.71097 | 37291 ft | 365 kts | 116° |
| 2026-04-30 20:16 | 49.63888 | 6.78027 | 37292 ft | 367 kts | 115° |
| 2026-04-30 20:16 | 49.61495 | 6.84945 | 37298 ft | 368 kts | 115° |
| 2026-04-30 20:17 | 49.59078 | 6.91916 | 37296 ft | 369 kts | 115° |
| 2026-04-30 20:17 | 49.56646 | 6.98899 | 37293 ft | 370 kts | 115° |
| 2026-04-30 20:18 | 49.54210 | 7.05889 | 37308 ft | 370 kts | 115° |
| 2026-04-30 20:18 | 49.51763 | 7.12880 | 37308 ft | 371 kts | 115° |
| 2026-04-30 20:19 | 49.49311 | 7.19872 | 37315 ft | 371 kts | 115° |
| 2026-04-30 20:19 | 49.46853 | 7.26863 | 37309 ft | 372 kts | 115° |
| 2026-04-30 20:20 | 49.44383 | 7.33867 | 37311 ft | 372 kts | 115° |
| 2026-04-30 20:20 | 49.41909 | 7.40863 | 37316 ft | 373 kts | 115° |
| 2026-04-30 20:21 | 49.39431 | 7.47855 | 37314 ft | 373 kts | 115° |
| 2026-04-30 20:21 | 49.36943 | 7.54849 | 37312 ft | 373 kts | 115° |
| 2026-04-30 20:22 | 49.34468 | 7.61791 | 37312 ft | 373 kts | 115° |
| 2026-04-30 20:22 | 49.31971 | 7.68778 | 37311 ft | 374 kts | 115° |
| 2026-04-30 20:23 | 49.29466 | 7.75767 | 37313 ft | 374 kts | 115° |
| 2026-04-30 20:23 | 49.26959 | 7.82742 | 37315 ft | 374 kts | 115° |
| 2026-04-30 20:24 | 49.24448 | 7.89710 | 37312 ft | 373 kts | 115° |
| 2026-04-30 20:24 | 49.21934 | 7.96667 | 37314 ft | 373 kts | 115° |
| 2026-04-30 20:25 | 49.18152 | 8.07098 | 37314 ft | 374 kts | 114° |
| 2026-04-30 20:26 | 49.14363 | 8.17501 | 37309 ft | 373 kts | 114° |
| 2026-04-30 20:26 | 49.10328 | 8.27607 | 37300 ft | 379 kts | 127° |
| 2026-04-30 20:27 | 49.06078 | 8.32515 | 37297 ft | 392 kts | 149° |
| 2026-04-30 20:27 | 49.00758 | 8.34693 | 37294 ft | 403 kts | 172° |
| 2026-04-30 20:28 | 48.95126 | 8.33977 | 37292 ft | 409 kts | 186° |
| 2026-04-30 20:28 | 48.89497 | 8.32929 | 37294 ft | 405 kts | 178° |
| 2026-04-30 20:29 | 48.83958 | 8.33926 | 37294 ft | 399 kts | 163° |
| 2026-04-30 20:30 | 48.76409 | 8.38391 | 37289 ft | 385 kts | 138° |
| 2026-04-30 20:30 | 48.71795 | 8.47839 | 37301 ft | 369 kts | 109° |
| 2026-04-30 20:31 | 48.68197 | 8.58195 | 37303 ft | 376 kts | 122° |
| 2026-04-30 20:32 | 48.60447 | 8.74063 | 37322 ft | 377 kts | 121° |
| 2026-04-30 20:33 | 48.55824 | 8.83678 | 37324 ft | 377 kts | 120° |
| 2026-04-30 20:34 | 48.51198 | 8.93284 | 37326 ft | 377 kts | 121° |
| 2026-04-30 20:35 | 48.46571 | 9.02888 | 37325 ft | 377 kts | 121° |
| 2026-04-30 20:35 | 48.42452 | 9.11405 | 37323 ft | 379 kts | 120° |
| 2026-04-30 20:36 | 48.39346 | 9.17805 | 37319 ft | 378 kts | 120° |
| 2026-04-30 20:37 | 48.34683 | 9.27391 | 37321 ft | 379 kts | 120° |
| 2026-04-30 20:37 | 48.31566 | 9.33779 | 37320 ft | 379 kts | 120° |
| 2026-04-30 20:38 | 48.28444 | 9.40161 | 37321 ft | 379 kts | 120° |
| 2026-04-30 20:38 | 48.25349 | 9.46563 | 37340 ft | 376 kts | 116° |
| 2026-04-30 20:39 | 48.21222 | 9.56585 | 37324 ft | 377 kts | 115° |
| 2026-04-30 20:40 | 48.17111 | 9.66576 | 37327 ft | 377 kts | 115° |
| 2026-04-30 20:40 | 48.14345 | 9.73265 | 37328 ft | 377 kts | 115° |
| 2026-04-30 20:41 | 48.10187 | 9.83298 | 37325 ft | 378 kts | 115° |
| 2026-04-30 20:41 | 48.07409 | 9.89982 | 37324 ft | 379 kts | 115° |
| 2026-04-30 20:42 | 48.04622 | 9.96669 | 37322 ft | 379 kts | 115° |
| 2026-04-30 20:43 | 48.00452 | 10.06644 | 37325 ft | 378 kts | 115° |
| 2026-04-30 20:43 | 47.97658 | 10.13305 | 37324 ft | 379 kts | 115° |
| 2026-04-30 20:44 | 47.93446 | 10.23317 | 37327 ft | 381 kts | 115° |
| 2026-04-30 20:45 | 47.87799 | 10.36684 | 37325 ft | 382 kts | 115° |
| 2026-04-30 20:45 | 47.84959 | 10.43386 | 37334 ft | 383 kts | 115° |
| 2026-04-30 20:46 | 47.79255 | 10.56787 | 37327 ft | 383 kts | 115° |
| 2026-04-30 20:47 | 47.74980 | 10.66789 | 37328 ft | 384 kts | 115° |
| 2026-04-30 20:48 | 47.70679 | 10.76813 | 37325 ft | 384 kts | 115° |
| 2026-04-30 20:48 | 47.67801 | 10.83499 | 37330 ft | 384 kts | 115° |
| 2026-04-30 20:49 | 47.64923 | 10.90171 | 37329 ft | 384 kts | 115° |
| 2026-04-30 20:50 | 47.60581 | 11.00207 | 37329 ft | 386 kts | 115° |
| 2026-04-30 20:50 | 47.57693 | 11.06858 | 37324 ft | 387 kts | 115° |
| 2026-04-30 20:51 | 47.54783 | 11.13549 | 37327 ft | 387 kts | 115° |
| 2026-04-30 20:51 | 47.50409 | 11.23568 | 37331 ft | 387 kts | 115° |
| 2026-04-30 20:52 | 47.47489 | 11.30242 | 37317 ft | 386 kts | 115° |
| 2026-04-30 20:53 | 47.43088 | 11.40258 | 37326 ft | 386 kts | 115° |
| 2026-04-30 20:53 | 47.40163 | 11.46906 | 37329 ft | 387 kts | 115° |
| 2026-04-30 20:54 | 47.35740 | 11.56927 | 37326 ft | 390 kts | 115° |
| 2026-04-30 20:55 | 47.31258 | 11.67012 | 37315 ft | 391 kts | 115° |
| 2026-04-30 20:55 | 47.28302 | 11.73673 | 37315 ft | 390 kts | 116° |
| 2026-04-30 20:56 | 47.23842 | 11.83667 | 37308 ft | 388 kts | 116° |
| 2026-04-30 20:57 | 47.19379 | 11.93574 | 37319 ft | 387 kts | 116° |
| 2026-04-30 20:57 | 47.16326 | 12.00116 | 37303 ft | 388 kts | 117° |
| 2026-04-30 20:58 | 47.11774 | 12.09969 | 37299 ft | 388 kts | 117° |
| 2026-04-30 20:58 | 47.08737 | 12.16505 | 37306 ft | 387 kts | 117° |
| 2026-04-30 20:59 | 47.04202 | 12.26241 | 37299 ft | 387 kts | 117° |
| 2026-04-30 21:00 | 46.98097 | 12.39299 | 37314 ft | 390 kts | 117° |
| 2026-04-30 21:01 | 46.93485 | 12.49113 | 37313 ft | 389 kts | 117° |
| 2026-04-30 21:02 | 46.88887 | 12.58886 | 37299 ft | 389 kts | 118° |
| 2026-04-30 21:02 | 46.85800 | 12.65400 | 37298 ft | 390 kts | 118° |
| 2026-04-30 21:03 | 46.82707 | 12.71938 | 37310 ft | 392 kts | 118° |
| 2026-04-30 21:03 | 46.79598 | 12.78480 | 37324 ft | 393 kts | 118° |
| 2026-04-30 21:04 | 46.76476 | 12.85037 | 37336 ft | 394 kts | 118° |
| 2026-04-30 21:04 | 46.71790 | 12.94854 | 37340 ft | 395 kts | 118° |
| 2026-04-30 21:05 | 46.68653 | 13.01404 | 37335 ft | 393 kts | 118° |
| 2026-04-30 21:05 | 46.65531 | 13.07903 | 37356 ft | 392 kts | 119° |
| 2026-04-30 21:06 | 46.62409 | 13.14400 | 37342 ft | 392 kts | 119° |
| 2026-04-30 21:06 | 46.59269 | 13.20907 | 37343 ft | 393 kts | 119° |
| 2026-04-30 21:07 | 46.56122 | 13.27421 | 37346 ft | 394 kts | 119° |
| 2026-04-30 21:07 | 46.52970 | 13.33925 | 37354 ft | 393 kts | 119° |
| 2026-04-30 21:08 | 46.49827 | 13.40398 | 37357 ft | 392 kts | 119° |
| 2026-04-30 21:08 | 46.46674 | 13.46877 | 37349 ft | 393 kts | 120° |
| 2026-04-30 21:09 | 46.43507 | 13.53366 | 37362 ft | 393 kts | 120° |
| 2026-04-30 21:09 | 46.40340 | 13.59844 | 37349 ft | 394 kts | 120° |
| 2026-04-30 21:10 | 46.37171 | 13.66306 | 37357 ft | 392 kts | 120° |
| 2026-04-30 21:10 | 46.34028 | 13.72702 | 37361 ft | 393 kts | 120° |
| 2026-04-30 21:11 | 46.30851 | 13.79166 | 37369 ft | 394 kts | 120° |
| 2026-04-30 21:11 | 46.27658 | 13.85627 | 37368 ft | 395 kts | 120° |
| 2026-04-30 21:12 | 46.24456 | 13.92103 | 37374 ft | 397 kts | 121° |
| 2026-04-30 21:12 | 46.21244 | 13.98584 | 37377 ft | 396 kts | 121° |
| 2026-04-30 21:13 | 46.18028 | 14.05050 | 37372 ft | 396 kts | 121° |
| 2026-04-30 21:13 | 46.14803 | 14.11524 | 37389 ft | 397 kts | 121° |
| 2026-04-30 21:14 | 46.11598 | 14.17948 | 37396 ft | 397 kts | 121° |
| 2026-04-30 21:14 | 46.08364 | 14.24405 | 37396 ft | 397 kts | 121° |
| 2026-04-30 21:15 | 46.05127 | 14.30867 | 37387 ft | 398 kts | 122° |
| 2026-04-30 21:15 | 46.01875 | 14.37330 | 37386 ft | 399 kts | 122° |
| 2026-04-30 21:16 | 45.98614 | 14.43805 | 37395 ft | 400 kts | 122° |
| 2026-04-30 21:16 | 45.95341 | 14.50284 | 37393 ft | 400 kts | 122° |
| 2026-04-30 21:17 | 45.92067 | 14.56756 | 37396 ft | 401 kts | 122° |
| 2026-04-30 21:17 | 45.88780 | 14.63233 | 37394 ft | 401 kts | 122° |
| 2026-04-30 21:18 | 45.85513 | 14.69655 | 37389 ft | 401 kts | 122° |
| 2026-04-30 21:18 | 45.82216 | 14.76126 | 37385 ft | 401 kts | 122° |
| 2026-04-30 21:19 | 45.78918 | 14.82579 | 37391 ft | 401 kts | 122° |
| 2026-04-30 21:19 | 45.75618 | 14.89031 | 37391 ft | 401 kts | 122° |
| 2026-04-30 21:20 | 45.72489 | 14.95611 | 37391 ft | 399 kts | 119° |
| 2026-04-30 21:20 | 45.69439 | 15.02236 | 37393 ft | 399 kts | 120° |
| 2026-04-30 21:21 | 45.66893 | 15.07748 | 37390 ft | 400 kts | 120° |
| 2026-04-30 21:22 | 45.62288 | 15.17709 | 37385 ft | 400 kts | 120° |
| 2026-04-30 21:23 | 45.56132 | 15.30967 | 37388 ft | 400 kts | 120° |
| 2026-04-30 21:23 | 45.51505 | 15.40895 | 37378 ft | 401 kts | 120° |
| 2026-04-30 21:24 | 45.48429 | 15.47471 | 37377 ft | 401 kts | 120° |
| 2026-04-30 21:24 | 45.45326 | 15.54091 | 37379 ft | 402 kts | 120° |
| 2026-04-30 21:25 | 45.40666 | 15.64005 | 37378 ft | 402 kts | 120° |
| 2026-04-30 21:26 | 45.35985 | 15.73927 | 37390 ft | 403 kts | 121° |
| 2026-04-30 21:27 | 45.31291 | 15.83843 | 37386 ft | 403 kts | 121° |
| 2026-04-30 21:27 | 45.28156 | 15.90446 | 37386 ft | 403 kts | 121° |
| 2026-04-30 21:28 | 45.23466 | 16.00297 | 37394 ft | 403 kts | 121° |
| 2026-04-30 21:29 | 45.18736 | 16.10194 | 37387 ft | 404 kts | 121° |
| 2026-04-30 21:30 | 45.10834 | 16.26658 | 37388 ft | 404 kts | 121° |
| 2026-04-30 21:31 | 45.02886 | 16.43130 | 37129 ft | 411 kts | 122° |
| 2026-04-30 21:32 | 44.99601 | 16.49894 | 36049 ft | 419 kts | 122° |
| 2026-04-30 21:32 | 44.97956 | 16.53280 | 35497 ft | 417 kts | 122° |
| 2026-04-30 21:32 | 44.96316 | 16.56661 | 34935 ft | 416 kts | 122° |
| 2026-04-30 21:32 | 44.94674 | 16.60023 | 34391 ft | 415 kts | 122° |
| 2026-04-30 21:33 | 44.92899 | 16.63138 | 34022 ft | 411 kts | 130° |
| 2026-04-30 21:33 | 44.88886 | 16.68850 | 32911 ft | 410 kts | 133° |
| 2026-04-30 21:33 | 44.86962 | 16.71822 | 32352 ft | 411 kts | 129° |
| 2026-04-30 21:34 | 44.85117 | 16.74909 | 31794 ft | 412 kts | 128° |
| 2026-04-30 21:34 | 44.81205 | 16.80873 | 30662 ft | 415 kts | 132° |
| 2026-04-30 21:34 | 44.79251 | 16.83857 | 30056 ft | 414 kts | 130° |
| 2026-04-30 21:35 | 44.77365 | 16.86891 | 29487 ft | 410 kts | 129° |
| 2026-04-30 21:35 | 44.75466 | 16.89868 | 28923 ft | 407 kts | 131° |
| 2026-04-30 21:35 | 44.73531 | 16.92776 | 28377 ft | 407 kts | 131° |
| 2026-04-30 21:35 | 44.71613 | 16.95702 | 27824 ft | 406 kts | 130° |
| 2026-04-30 21:36 | 44.69723 | 16.98671 | 27267 ft | 408 kts | 130° |
| 2026-04-30 21:36 | 44.67813 | 17.01644 | 26709 ft | 411 kts | 131° |
| 2026-04-30 21:37 | 44.62036 | 17.10491 | 25040 ft | 410 kts | 130° |
| 2026-04-30 21:37 | 44.60119 | 17.13447 | 24481 ft | 409 kts | 131° |
| 2026-04-30 21:37 | 44.58191 | 17.16372 | 23917 ft | 407 kts | 131° |
| 2026-04-30 21:37 | 44.56283 | 17.19282 | 23336 ft | 402 kts | 130° |
| 2026-04-30 21:38 | 44.54413 | 17.22165 | 22777 ft | 397 kts | 130° |
| 2026-04-30 21:38 | 44.52553 | 17.25007 | 22238 ft | 393 kts | 131° |
| 2026-04-30 21:38 | 44.50714 | 17.27799 | 21709 ft | 387 kts | 131° |
| 2026-04-30 21:38 | 44.48903 | 17.30554 | 21183 ft | 382 kts | 130° |
| 2026-04-30 21:39 | 44.47122 | 17.33278 | 20670 ft | 376 kts | 130° |
| 2026-04-30 21:39 | 44.45365 | 17.35956 | 20152 ft | 372 kts | 130° |
| 2026-04-30 21:39 | 44.43619 | 17.38602 | 19647 ft | 368 kts | 131° |
| 2026-04-30 21:39 | 44.41891 | 17.41218 | 19157 ft | 364 kts | 131° |
| 2026-04-30 21:40 | 44.40183 | 17.43818 | 18654 ft | 361 kts | 130° |
| 2026-04-30 21:40 | 44.38490 | 17.46391 | 18133 ft | 357 kts | 131° |
| 2026-04-30 21:40 | 44.36818 | 17.48920 | 17647 ft | 352 kts | 131° |
| 2026-04-30 21:40 | 44.35162 | 17.51415 | 17169 ft | 348 kts | 130° |
| 2026-04-30 21:41 | 44.33526 | 17.53875 | 16699 ft | 344 kts | 130° |
| 2026-04-30 21:41 | 44.31913 | 17.56329 | 16232 ft | 341 kts | 130° |
| 2026-04-30 21:41 | 44.30314 | 17.58757 | 15760 ft | 338 kts | 130° |
| 2026-04-30 21:41 | 44.28728 | 17.61133 | 15304 ft | 333 kts | 130° |
| 2026-04-30 21:42 | 44.27149 | 17.63504 | 14571 ft | 335 kts | 130° |
| 2026-04-30 21:42 | 44.25584 | 17.65853 | 14048 ft | 325 kts | 130° |
| 2026-04-30 21:42 | 44.24070 | 17.68129 | 13586 ft | 314 kts | 130° |
| 2026-04-30 21:42 | 44.22610 | 17.70340 | 13155 ft | 305 kts | 129° |
| 2026-04-30 21:43 | 44.21180 | 17.72487 | 12744 ft | 298 kts | 129° |
| 2026-04-30 21:43 | 44.19767 | 17.74595 | 12344 ft | 297 kts | 130° |
| 2026-04-30 21:43 | 44.18363 | 17.76705 | 11934 ft | 296 kts | 129° |
| 2026-04-30 21:43 | 44.16965 | 17.78806 | 11529 ft | 296 kts | 129° |
| 2026-04-30 21:44 | 44.15573 | 17.80905 | 11123 ft | 294 kts | 129° |
| 2026-04-30 21:44 | 44.14175 | 17.82975 | 10721 ft | 292 kts | 130° |
| 2026-04-30 21:44 | 44.12784 | 17.85025 | 10323 ft | 290 kts | 129° |
| 2026-04-30 21:44 | 44.11423 | 17.87080 | 9895 ft | 287 kts | 129° |
| 2026-04-30 21:45 | 44.10082 | 17.89107 | 9506 ft | 282 kts | 128° |
| 2026-04-30 21:45 | 44.08744 | 17.91084 | 9123 ft | 278 kts | 129° |
| 2026-04-30 21:45 | 44.07448 | 17.93006 | 8752 ft | 275 kts | 128° |
| 2026-04-30 21:45 | 44.06154 | 17.94942 | 8377 ft | 272 kts | 128° |
| 2026-04-30 21:46 | 44.04867 | 17.96865 | 8004 ft | 271 kts | 129° |
| 2026-04-30 21:46 | 44.03580 | 17.98768 | 7634 ft | 269 kts | 129° |
| 2026-04-30 21:46 | 44.02288 | 18.00640 | 7255 ft | 268 kts | 133° |
| 2026-04-30 21:46 | 44.00647 | 18.01890 | 6907 ft | 274 kts | 160° |
| 2026-04-30 21:47 | 43.98810 | 18.02527 | 6557 ft | 269 kts | 160° |
| 2026-04-30 21:47 | 43.97073 | 18.03400 | 6209 ft | 262 kts | 153° |
| 2026-04-30 21:47 | 43.95389 | 18.04320 | 5874 ft | 259 kts | 156° |
| 2026-04-30 21:47 | 43.93709 | 18.05066 | 5554 ft | 246 kts | 156° |
| 2026-04-30 21:48 | 43.92432 | 18.06398 | 5289 ft | 221 kts | 120° |
| 2026-04-30 21:48 | 43.91760 | 18.08211 | 5106 ft | 204 kts | 110° |
| 2026-04-30 21:48 | 43.91098 | 18.09954 | 4904 ft | 204 kts | 112° |
| 2026-04-30 21:48 | 43.90455 | 18.11707 | 4723 ft | 204 kts | 112° |
| 2026-04-30 21:49 | 43.89805 | 18.13467 | 4544 ft | 205 kts | 115° |
| 2026-04-30 21:49 | 43.89148 | 18.15228 | 4369 ft | 206 kts | 116° |
| 2026-04-30 21:49 | 43.88489 | 18.16976 | 4163 ft | 202 kts | 116° |
| 2026-04-30 21:49 | 43.87852 | 18.18692 | 3889 ft | 203 kts | 115° |
| 2026-04-30 21:50 | 43.87204 | 18.20434 | 3632 ft | 202 kts | 115° |
| 2026-04-30 21:50 | 43.86571 | 18.22122 | 3397 ft | 192 kts | 115° |
| 2026-04-30 21:50 | 43.85976 | 18.23730 | 3150 ft | 178 kts | 115° |
| 2026-04-30 21:50 | 43.85448 | 18.25145 | 2898 ft | 155 kts | 115° |
| 2026-04-30 21:51 | 43.84996 | 18.26335 | 2658 ft | 127 kts | 114° |
| 2026-04-30 21:51 | 43.84607 | 18.27409 | 2448 ft | 125 kts | 112° |
| 2026-04-30 21:51 | 43.84209 | 18.28469 | 2319 ft | 124 kts | 114° |
| 2026-04-30 21:51 | 43.83808 | 18.29537 | 2105 ft | 124 kts | 114° |
| 2026-04-30 21:52 | 43.83411 | 18.30601 | 1885 ft | 124 kts | 117° |
| 2026-04-30 21:52 | 43.83023 | 18.31635 | 1709 ft | 112 kts | 114° |
| 2026-04-30 21:52 | 43.82714 | 18.32468 | 1661 ft | 82 kts | 117° |
| 2026-04-30 21:52 | 43.82549 | 18.32907 | 1663 ft | 31 kts | 117° |
| 2026-04-30 21:53 | 43.82504 | 18.33121 | 1662 ft | 17 kts | 86° |
| 2026-04-30 21:53 | 43.82529 | 18.33238 | 1670 ft | 9 kts | 67° |
| 2026-04-30 21:53 | 43.82555 | 18.33329 | 1667 ft | 8 kts | 76° |
| 2026-04-30 21:53 | 43.82550 | 18.33377 | 1667 ft | 4 kts | 113° |
| 2026-04-30 21:54 | 43.82538 | 18.33427 | 1674 ft | 5 kts | 99° |
| 2026-04-30 21:54 | 43.82544 | 18.33484 | 1679 ft | 7 kts | 51° |
| 2026-04-30 21:54 | 43.82579 | 18.33504 | 1669 ft | 4 kts | 304° |
| 2026-04-30 21:54 | 43.82582 | 18.33496 | 1675 ft | 0 kts | 297° |